sensor_id;sensor_type;location;lat;lon;timestamp;P1;durP1;ratioP1;P2;durP2;ratioP2
75417;SDS011;63997;52.112;5.420;2023-11-19T00:02:26;10.33;;;3.37;;
75417;SDS011;63997;52.112;5.420;2023-11-19T00:04:53;15.95;;;5.20;;
75417;SDS011;63997;52.112;5.420;2023-11-19T00:07:19;13.77;;;3.20;;
75417;SDS011;63997;52.112;5.420;2023-11-19T00:09:47;12.45;;;4.00;;
75417;SDS011;63997;52.112;5.420;2023-11-19T00:12:13;7.10;;;3.00;;
75417;SDS011;63997;52.112;5.420;2023-11-19T00:14:40;12.17;;;3.20;;
75417;SDS011;63997;52.112;5.420;2023-11-19T00:17:07;17.63;;;3.10;;
75417;SDS011;63997;52.112;5.420;2023-11-19T00:19:33;8.98;;;3.38;;
75417;SDS011;63997;52.112;5.420;2023-11-19T00:21:59;13.90;;;2.95;;
75417;SDS011;63997;52.112;5.420;2023-11-19T00:24:29;15.90;;;2.63;;
75417;SDS011;63997;52.112;5.420;2023-11-19T00:26:56;7.70;;;2.20;;
75417;SDS011;63997;52.112;5.420;2023-11-19T00:29:23;17.38;;;2.95;;
75417;SDS011;63997;52.112;5.420;2023-11-19T00:31:49;12.18;;;2.78;;
75417;SDS011;63997;52.112;5.420;2023-11-19T00:34:16;9.82;;;2.25;;
75417;SDS011;63997;52.112;5.420;2023-11-19T00:36:43;11.30;;;2.40;;
75417;SDS011;63997;52.112;5.420;2023-11-19T00:39:11;10.70;;;3.03;;
75417;SDS011;63997;52.112;5.420;2023-11-19T00:41:37;13.00;;;2.33;;
75417;SDS011;63997;52.112;5.420;2023-11-19T00:44:03;8.18;;;2.05;;
75417;SDS011;63997;52.112;5.420;2023-11-19T00:46:30;8.57;;;2.28;;
75417;SDS011;63997;52.112;5.420;2023-11-19T00:48:57;12.40;;;2.25;;
75417;SDS011;63997;52.112;5.420;2023-11-19T00:51:25;13.70;;;2.20;;
75417;SDS011;63997;52.112;5.420;2023-11-19T00:53:52;12.15;;;1.77;;
75417;SDS011;63997;52.112;5.420;2023-11-19T00:56:21;13.60;;;2.10;;
75417;SDS011;63997;52.112;5.420;2023-11-19T00:58:48;14.30;;;2.38;;
75417;SDS011;63997;52.112;5.420;2023-11-19T01:01:14;14.88;;;2.42;;
75417;SDS011;63997;52.112;5.420;2023-11-19T01:03:41;18.10;;;2.07;;
75417;SDS011;63997;52.112;5.420;2023-11-19T01:06:07;17.58;;;2.15;;
75417;SDS011;63997;52.112;5.420;2023-11-19T01:08:34;16.88;;;2.67;;
75417;SDS011;63997;52.112;5.420;2023-11-19T01:11:03;16.98;;;2.75;;
75417;SDS011;63997;52.112;5.420;2023-11-19T01:13:30;15.70;;;3.08;;
75417;SDS011;63997;52.112;5.420;2023-11-19T01:15:57;15.37;;;2.23;;
75417;SDS011;63997;52.112;5.420;2023-11-19T01:18:23;17.38;;;2.30;;
75417;SDS011;63997;52.112;5.420;2023-11-19T01:20:50;21.38;;;2.60;;
75417;SDS011;63997;52.112;5.420;2023-11-19T01:23:16;25.02;;;2.88;;
75417;SDS011;63997;52.112;5.420;2023-11-19T01:25:42;19.73;;;2.90;;
75417;SDS011;63997;52.112;5.420;2023-11-19T01:28:09;19.47;;;2.63;;
75417;SDS011;63997;52.112;5.420;2023-11-19T01:30:35;25.55;;;2.80;;
75417;SDS011;63997;52.112;5.420;2023-11-19T01:33:02;21.90;;;3.20;;
75417;SDS011;63997;52.112;5.420;2023-11-19T01:35:28;19.15;;;2.38;;
75417;SDS011;63997;52.112;5.420;2023-11-19T01:37:54;18.85;;;2.65;;
75417;SDS011;63997;52.112;5.420;2023-11-19T01:40:21;18.07;;;2.67;;
75417;SDS011;63997;52.112;5.420;2023-11-19T01:42:48;17.40;;;2.45;;
75417;SDS011;63997;52.112;5.420;2023-11-19T01:45:21;23.63;;;2.90;;
75417;SDS011;63997;52.112;5.420;2023-11-19T01:47:53;20.15;;;2.25;;
75417;SDS011;63997;52.112;5.420;2023-11-19T01:50:19;26.65;;;3.35;;
75417;SDS011;63997;52.112;5.420;2023-11-19T01:52:46;26.57;;;3.13;;
75417;SDS011;63997;52.112;5.420;2023-11-19T01:55:13;27.77;;;3.13;;
75417;SDS011;63997;52.112;5.420;2023-11-19T01:57:40;20.73;;;2.40;;
75417;SDS011;63997;52.112;5.420;2023-11-19T02:00:07;26.73;;;2.95;;
75417;SDS011;63997;52.112;5.420;2023-11-19T02:02:39;15.80;;;2.65;;
75417;SDS011;63997;52.112;5.420;2023-11-19T02:05:07;24.47;;;2.97;;
75417;SDS011;63997;52.112;5.420;2023-11-19T02:07:33;24.02;;;3.10;;
75417;SDS011;63997;52.112;5.420;2023-11-19T02:10:00;21.27;;;2.65;;
75417;SDS011;63997;52.112;5.420;2023-11-19T02:12:29;28.38;;;3.35;;
75417;SDS011;63997;52.112;5.420;2023-11-19T02:14:55;22.33;;;3.25;;
75417;SDS011;63997;52.112;5.420;2023-11-19T02:17:28;22.40;;;2.80;;
75417;SDS011;63997;52.112;5.420;2023-11-19T02:19:58;24.75;;;2.60;;
75417;SDS011;63997;52.112;5.420;2023-11-19T02:22:24;25.70;;;2.70;;
75417;SDS011;63997;52.112;5.420;2023-11-19T02:24:51;19.83;;;4.72;;
75417;SDS011;63997;52.112;5.420;2023-11-19T02:27:31;27.45;;;3.75;;
75417;SDS011;63997;52.112;5.420;2023-11-19T02:30:15;20.20;;;2.47;;
75417;SDS011;63997;52.112;5.420;2023-11-19T02:32:42;21.73;;;3.17;;
75417;SDS011;63997;52.112;5.420;2023-11-19T02:35:09;26.20;;;3.33;;
75417;SDS011;63997;52.112;5.420;2023-11-19T02:37:35;25.73;;;3.40;;
75417;SDS011;63997;52.112;5.420;2023-11-19T02:40:02;24.70;;;2.88;;
75417;SDS011;63997;52.112;5.420;2023-11-19T02:42:29;22.43;;;3.07;;
75417;SDS011;63997;52.112;5.420;2023-11-19T02:44:56;27.58;;;2.75;;
75417;SDS011;63997;52.112;5.420;2023-11-19T02:47:22;23.83;;;3.67;;
75417;SDS011;63997;52.112;5.420;2023-11-19T02:49:50;29.50;;;3.13;;
75417;SDS011;63997;52.112;5.420;2023-11-19T02:52:19;30.80;;;3.78;;
75417;SDS011;63997;52.112;5.420;2023-11-19T02:54:46;19.43;;;2.70;;
75417;SDS011;63997;52.112;5.420;2023-11-19T02:57:12;29.95;;;3.33;;
75417;SDS011;63997;52.112;5.420;2023-11-19T02:59:47;22.42;;;3.60;;
75417;SDS011;63997;52.112;5.420;2023-11-19T03:02:14;33.83;;;4.20;;
75417;SDS011;63997;52.112;5.420;2023-11-19T03:04:42;29.63;;;4.20;;
75417;SDS011;63997;52.112;5.420;2023-11-19T03:07:10;29.47;;;3.67;;
75417;SDS011;63997;52.112;5.420;2023-11-19T03:09:36;32.17;;;3.60;;
75417;SDS011;63997;52.112;5.420;2023-11-19T03:12:04;36.60;;;3.95;;
75417;SDS011;63997;52.112;5.420;2023-11-19T03:14:33;21.90;;;3.78;;
75417;SDS011;63997;52.112;5.420;2023-11-19T03:17:00;26.10;;;4.07;;
75417;SDS011;63997;52.112;5.420;2023-11-19T03:19:27;26.10;;;3.07;;
75417;SDS011;63997;52.112;5.420;2023-11-19T03:21:53;26.55;;;4.13;;
75417;SDS011;63997;52.112;5.420;2023-11-19T03:24:20;28.55;;;3.40;;
75417;SDS011;63997;52.112;5.420;2023-11-19T03:26:50;28.98;;;3.53;;
75417;SDS011;63997;52.112;5.420;2023-11-19T03:29:16;29.13;;;3.42;;
75417;SDS011;63997;52.112;5.420;2023-11-19T03:31:43;27.33;;;4.13;;
75417;SDS011;63997;52.112;5.420;2023-11-19T03:34:10;26.92;;;3.80;;
75417;SDS011;63997;52.112;5.420;2023-11-19T03:36:37;34.33;;;5.07;;
75417;SDS011;63997;52.112;5.420;2023-11-19T03:39:03;25.00;;;3.17;;
75417;SDS011;63997;52.112;5.420;2023-11-19T03:41:30;29.00;;;3.65;;
75417;SDS011;63997;52.112;5.420;2023-11-19T03:44:07;34.97;;;3.77;;
75417;SDS011;63997;52.112;5.420;2023-11-19T03:46:33;26.88;;;3.58;;
75417;SDS011;63997;52.112;5.420;2023-11-19T03:49:01;30.33;;;3.88;;
75417;SDS011;63997;52.112;5.420;2023-11-19T03:51:28;30.00;;;3.00;;
75417;SDS011;63997;52.112;5.420;2023-11-19T03:53:54;32.33;;;3.80;;
75417;SDS011;63997;52.112;5.420;2023-11-19T03:56:21;31.00;;;5.00;;
75417;SDS011;63997;52.112;5.420;2023-11-19T03:58:47;31.63;;;4.40;;
75417;SDS011;63997;52.112;5.420;2023-11-19T04:01:14;34.58;;;3.35;;
75417;SDS011;63997;52.112;5.420;2023-11-19T04:03:40;39.65;;;4.30;;
75417;SDS011;63997;52.112;5.420;2023-11-19T04:06:10;30.23;;;4.32;;
75417;SDS011;63997;52.112;5.420;2023-11-19T04:08:36;29.23;;;3.60;;
75417;SDS011;63997;52.112;5.420;2023-11-19T04:11:03;26.73;;;3.67;;
75417;SDS011;63997;52.112;5.420;2023-11-19T04:13:30;35.00;;;4.55;;
75417;SDS011;63997;52.112;5.420;2023-11-19T04:15:57;35.20;;;4.57;;
75417;SDS011;63997;52.112;5.420;2023-11-19T04:18:23;30.88;;;3.72;;
75417;SDS011;63997;52.112;5.420;2023-11-19T04:20:49;36.37;;;3.57;;
75417;SDS011;63997;52.112;5.420;2023-11-19T04:23:17;28.88;;;3.22;;
75417;SDS011;63997;52.112;5.420;2023-11-19T04:25:43;23.23;;;4.60;;
75417;SDS011;63997;52.112;5.420;2023-11-19T04:28:10;38.38;;;4.70;;
75417;SDS011;63997;52.112;5.420;2023-11-19T04:30:37;30.35;;;3.70;;
75417;SDS011;63997;52.112;5.420;2023-11-19T04:33:04;24.60;;;3.30;;
75417;SDS011;63997;52.112;5.420;2023-11-19T04:35:30;27.25;;;4.03;;
75417;SDS011;63997;52.112;5.420;2023-11-19T04:37:56;42.38;;;4.55;;
75417;SDS011;63997;52.112;5.420;2023-11-19T04:40:23;37.17;;;3.67;;
75417;SDS011;63997;52.112;5.420;2023-11-19T04:42:50;27.15;;;4.00;;
75417;SDS011;63997;52.112;5.420;2023-11-19T04:45:16;29.90;;;3.73;;
75417;SDS011;63997;52.112;5.420;2023-11-19T04:47:43;30.52;;;4.95;;
75417;SDS011;63997;52.112;5.420;2023-11-19T04:50:10;31.33;;;4.30;;
75417;SDS011;63997;52.112;5.420;2023-11-19T04:52:37;39.92;;;5.13;;
75417;SDS011;63997;52.112;5.420;2023-11-19T04:55:06;33.88;;;4.25;;
75417;SDS011;63997;52.112;5.420;2023-11-19T04:57:33;28.00;;;3.50;;
75417;SDS011;63997;52.112;5.420;2023-11-19T04:59:59;34.55;;;3.70;;
75417;SDS011;63997;52.112;5.420;2023-11-19T05:02:26;28.25;;;3.60;;
75417;SDS011;63997;52.112;5.420;2023-11-19T05:04:53;32.00;;;4.45;;
75417;SDS011;63997;52.112;5.420;2023-11-19T05:07:19;32.03;;;4.20;;
75417;SDS011;63997;52.112;5.420;2023-11-19T05:09:46;38.23;;;4.60;;
75417;SDS011;63997;52.112;5.420;2023-11-19T05:12:12;29.95;;;3.53;;
75417;SDS011;63997;52.112;5.420;2023-11-19T05:14:39;29.08;;;3.58;;
75417;SDS011;63997;52.112;5.420;2023-11-19T05:17:05;36.67;;;4.93;;
75417;SDS011;63997;52.112;5.420;2023-11-19T05:19:32;37.63;;;4.57;;
75417;SDS011;63997;52.112;5.420;2023-11-19T05:21:58;30.83;;;4.30;;
75417;SDS011;63997;52.112;5.420;2023-11-19T05:24:24;25.13;;;3.22;;
75417;SDS011;63997;52.112;5.420;2023-11-19T05:26:51;26.92;;;4.57;;
75417;SDS011;63997;52.112;5.420;2023-11-19T05:29:18;27.60;;;3.35;;
75417;SDS011;63997;52.112;5.420;2023-11-19T05:31:44;31.67;;;3.75;;
75417;SDS011;63997;52.112;5.420;2023-11-19T05:34:11;28.53;;;5.87;;
75417;SDS011;63997;52.112;5.420;2023-11-19T05:36:37;33.05;;;4.30;;
75417;SDS011;63997;52.112;5.420;2023-11-19T05:39:05;32.80;;;3.92;;
75417;SDS011;63997;52.112;5.420;2023-11-19T05:41:32;38.00;;;3.95;;
75417;SDS011;63997;52.112;5.420;2023-11-19T05:43:58;33.63;;;3.47;;
75417;SDS011;63997;52.112;5.420;2023-11-19T05:46:25;32.23;;;3.83;;
75417;SDS011;63997;52.112;5.420;2023-11-19T05:48:53;32.17;;;4.63;;
75417;SDS011;63997;52.112;5.420;2023-11-19T05:51:20;33.65;;;3.63;;
75417;SDS011;63997;52.112;5.420;2023-11-19T05:53:46;25.63;;;3.28;;
75417;SDS011;63997;52.112;5.420;2023-11-19T05:56:16;36.20;;;4.68;;
75417;SDS011;63997;52.112;5.420;2023-11-19T05:58:47;29.63;;;4.13;;
75417;SDS011;63997;52.112;5.420;2023-11-19T06:01:15;24.20;;;3.40;;
75417;SDS011;63997;52.112;5.420;2023-11-19T06:03:41;35.92;;;4.68;;
75417;SDS011;63997;52.112;5.420;2023-11-19T06:06:09;32.15;;;3.10;;
75417;SDS011;63997;52.112;5.420;2023-11-19T06:08:36;37.17;;;4.82;;
75417;SDS011;63997;52.112;5.420;2023-11-19T06:11:03;26.03;;;3.40;;
75417;SDS011;63997;52.112;5.420;2023-11-19T06:13:30;32.70;;;4.07;;
75417;SDS011;63997;52.112;5.420;2023-11-19T06:15:57;37.08;;;4.28;;
75417;SDS011;63997;52.112;5.420;2023-11-19T06:18:23;29.25;;;3.47;;
75417;SDS011;63997;52.112;5.420;2023-11-19T06:20:50;29.95;;;3.72;;
75417;SDS011;63997;52.112;5.420;2023-11-19T06:23:16;34.37;;;3.33;;
75417;SDS011;63997;52.112;5.420;2023-11-19T06:25:43;31.70;;;4.38;;
75417;SDS011;63997;52.112;5.420;2023-11-19T06:28:09;39.95;;;4.85;;
75417;SDS011;63997;52.112;5.420;2023-11-19T06:30:36;35.10;;;3.92;;
75417;SDS011;63997;52.112;5.420;2023-11-19T06:33:02;30.25;;;3.15;;
75417;SDS011;63997;52.112;5.420;2023-11-19T06:35:30;29.90;;;3.60;;
75417;SDS011;63997;52.112;5.420;2023-11-19T06:38:02;31.73;;;4.03;;
75417;SDS011;63997;52.112;5.420;2023-11-19T06:40:31;35.15;;;4.70;;
75417;SDS011;63997;52.112;5.420;2023-11-19T06:43:01;28.15;;;3.95;;
75417;SDS011;63997;52.112;5.420;2023-11-19T06:45:30;33.15;;;3.83;;
75417;SDS011;63997;52.112;5.420;2023-11-19T06:47:56;25.57;;;3.40;;
75417;SDS011;63997;52.112;5.420;2023-11-19T06:50:23;27.42;;;3.50;;
75417;SDS011;63997;52.112;5.420;2023-11-19T06:52:49;22.98;;;3.60;;
75417;SDS011;63997;52.112;5.420;2023-11-19T06:55:16;37.80;;;3.65;;
75417;SDS011;63997;52.112;5.420;2023-11-19T06:57:42;31.15;;;3.30;;
75417;SDS011;63997;52.112;5.420;2023-11-19T07:00:09;29.70;;;3.43;;
75417;SDS011;63997;52.112;5.420;2023-11-19T07:02:37;36.30;;;3.72;;
75417;SDS011;63997;52.112;5.420;2023-11-19T07:05:04;29.08;;;3.78;;
75417;SDS011;63997;52.112;5.420;2023-11-19T07:07:31;28.50;;;4.07;;
75417;SDS011;63997;52.112;5.420;2023-11-19T07:09:58;29.90;;;4.10;;
75417;SDS011;63997;52.112;5.420;2023-11-19T07:12:25;26.27;;;3.23;;
75417;SDS011;63997;52.112;5.420;2023-11-19T07:14:54;27.10;;;3.85;;
75417;SDS011;63997;52.112;5.420;2023-11-19T07:17:21;26.17;;;3.58;;
75417;SDS011;63997;52.112;5.420;2023-11-19T07:19:49;36.97;;;4.35;;
75417;SDS011;63997;52.112;5.420;2023-11-19T07:22:16;31.27;;;4.05;;
75417;SDS011;63997;52.112;5.420;2023-11-19T07:24:43;42.67;;;4.10;;
75417;SDS011;63997;52.112;5.420;2023-11-19T07:27:10;41.00;;;4.85;;
75417;SDS011;63997;52.112;5.420;2023-11-19T07:29:36;31.17;;;4.13;;
75417;SDS011;63997;52.112;5.420;2023-11-19T07:32:04;30.08;;;3.58;;
75417;SDS011;63997;52.112;5.420;2023-11-19T07:34:31;34.00;;;3.95;;
75417;SDS011;63997;52.112;5.420;2023-11-19T07:36:57;28.00;;;3.70;;
75417;SDS011;63997;52.112;5.420;2023-11-19T07:39:28;39.15;;;5.07;;
75417;SDS011;63997;52.112;5.420;2023-11-19T07:41:55;30.40;;;3.83;;
75417;SDS011;63997;52.112;5.420;2023-11-19T07:44:21;26.23;;;3.33;;
75417;SDS011;63997;52.112;5.420;2023-11-19T07:46:48;34.90;;;4.38;;
75417;SDS011;63997;52.112;5.420;2023-11-19T07:49:15;28.53;;;3.43;;
75417;SDS011;63997;52.112;5.420;2023-11-19T07:51:41;32.92;;;3.70;;
75417;SDS011;63997;52.112;5.420;2023-11-19T07:54:08;32.70;;;4.20;;
75417;SDS011;63997;52.112;5.420;2023-11-19T07:56:34;33.28;;;3.80;;
75417;SDS011;63997;52.112;5.420;2023-11-19T07:59:04;24.25;;;3.28;;
75417;SDS011;63997;52.112;5.420;2023-11-19T08:01:30;35.63;;;4.07;;
75417;SDS011;63997;52.112;5.420;2023-11-19T08:03:57;40.22;;;3.72;;
75417;SDS011;63997;52.112;5.420;2023-11-19T08:06:25;29.33;;;3.38;;
75417;SDS011;63997;52.112;5.420;2023-11-19T08:08:52;43.25;;;4.45;;
75417;SDS011;63997;52.112;5.420;2023-11-19T08:11:18;28.75;;;3.85;;
75417;SDS011;63997;52.112;5.420;2023-11-19T08:13:46;32.30;;;3.57;;
75417;SDS011;63997;52.112;5.420;2023-11-19T08:16:13;27.83;;;3.40;;
75417;SDS011;63997;52.112;5.420;2023-11-19T08:18:41;25.95;;;3.53;;
75417;SDS011;63997;52.112;5.420;2023-11-19T08:21:09;36.35;;;4.07;;
75417;SDS011;63997;52.112;5.420;2023-11-19T08:23:35;15.40;;;3.28;;
75417;SDS011;63997;52.112;5.420;2023-11-19T08:26:02;34.43;;;3.93;;
75417;SDS011;63997;52.112;5.420;2023-11-19T08:28:29;32.15;;;4.00;;
75417;SDS011;63997;52.112;5.420;2023-11-19T08:30:57;33.08;;;4.25;;
75417;SDS011;63997;52.112;5.420;2023-11-19T08:33:25;33.25;;;3.85;;
75417;SDS011;63997;52.112;5.420;2023-11-19T08:35:52;35.08;;;4.80;;
75417;SDS011;63997;52.112;5.420;2023-11-19T08:38:19;32.00;;;4.03;;
75417;SDS011;63997;52.112;5.420;2023-11-19T08:40:48;23.98;;;4.75;;
75417;SDS011;63997;52.112;5.420;2023-11-19T08:43:15;30.42;;;3.63;;
75417;SDS011;63997;52.112;5.420;2023-11-19T08:45:42;33.53;;;4.03;;
75417;SDS011;63997;52.112;5.420;2023-11-19T08:48:08;30.38;;;3.22;;
75417;SDS011;63997;52.112;5.420;2023-11-19T08:50:35;24.60;;;3.20;;
75417;SDS011;63997;52.112;5.420;2023-11-19T08:53:02;25.40;;;3.58;;
75417;SDS011;63997;52.112;5.420;2023-11-19T08:55:28;28.48;;;3.03;;
75417;SDS011;63997;52.112;5.420;2023-11-19T08:57:55;30.38;;;4.68;;
75417;SDS011;63997;52.112;5.420;2023-11-19T09:00:21;26.92;;;3.22;;
75417;SDS011;63997;52.112;5.420;2023-11-19T09:02:47;39.50;;;4.17;;
75417;SDS011;63997;52.112;5.420;2023-11-19T09:05:14;20.20;;;3.80;;
75417;SDS011;63997;52.112;5.420;2023-11-19T09:07:41;30.80;;;4.03;;
75417;SDS011;63997;52.112;5.420;2023-11-19T09:10:07;33.00;;;4.38;;
75417;SDS011;63997;52.112;5.420;2023-11-19T09:12:35;25.65;;;3.47;;
75417;SDS011;63997;52.112;5.420;2023-11-19T09:15:01;31.33;;;3.43;;
75417;SDS011;63997;52.112;5.420;2023-11-19T09:17:27;22.52;;;3.03;;
75417;SDS011;63997;52.112;5.420;2023-11-19T09:19:54;31.00;;;3.25;;
75417;SDS011;63997;52.112;5.420;2023-11-19T09:22:21;28.23;;;3.47;;
75417;SDS011;63997;52.112;5.420;2023-11-19T09:24:47;26.60;;;3.08;;
75417;SDS011;63997;52.112;5.420;2023-11-19T09:27:14;25.53;;;3.87;;
75417;SDS011;63997;52.112;5.420;2023-11-19T09:29:41;24.20;;;4.18;;
75417;SDS011;63997;52.112;5.420;2023-11-19T09:32:07;34.38;;;3.40;;
75417;SDS011;63997;52.112;5.420;2023-11-19T09:34:34;35.33;;;3.67;;
75417;SDS011;63997;52.112;5.420;2023-11-19T09:37:00;25.80;;;3.08;;
75417;SDS011;63997;52.112;5.420;2023-11-19T09:39:27;32.10;;;4.10;;
75417;SDS011;63997;52.112;5.420;2023-11-19T09:41:54;23.90;;;3.08;;
75417;SDS011;63997;52.112;5.420;2023-11-19T09:44:20;28.45;;;3.50;;
75417;SDS011;63997;52.112;5.420;2023-11-19T09:46:47;32.72;;;3.70;;
75417;SDS011;63997;52.112;5.420;2023-11-19T09:49:15;28.77;;;3.50;;
75417;SDS011;63997;52.112;5.420;2023-11-19T09:52:01;27.20;;;3.13;;
75417;SDS011;63997;52.112;5.420;2023-11-19T09:54:28;21.27;;;3.35;;
75417;SDS011;63997;52.112;5.420;2023-11-19T09:56:55;24.25;;;3.10;;
75417;SDS011;63997;52.112;5.420;2023-11-19T09:59:31;26.45;;;4.15;;
75417;SDS011;63997;52.112;5.420;2023-11-19T10:01:59;25.58;;;3.65;;
75417;SDS011;63997;52.112;5.420;2023-11-19T10:04:26;29.97;;;3.07;;
75417;SDS011;63997;52.112;5.420;2023-11-19T10:06:56;34.05;;;3.38;;
75417;SDS011;63997;52.112;5.420;2023-11-19T10:09:23;28.23;;;3.10;;
75417;SDS011;63997;52.112;5.420;2023-11-19T10:11:50;29.33;;;3.92;;
75417;SDS011;63997;52.112;5.420;2023-11-19T10:14:16;26.25;;;3.35;;
75417;SDS011;63997;52.112;5.420;2023-11-19T10:16:49;26.47;;;3.90;;
75417;SDS011;63997;52.112;5.420;2023-11-19T10:19:18;27.05;;;5.15;;
75417;SDS011;63997;52.112;5.420;2023-11-19T10:21:46;22.67;;;3.72;;
75417;SDS011;63997;52.112;5.420;2023-11-19T10:24:13;26.88;;;3.15;;
75417;SDS011;63997;52.112;5.420;2023-11-19T10:26:56;25.70;;;3.05;;
75417;SDS011;63997;52.112;5.420;2023-11-19T10:29:23;26.30;;;3.97;;
75417;SDS011;63997;52.112;5.420;2023-11-19T10:31:56;28.88;;;3.15;;
75417;SDS011;63997;52.112;5.420;2023-11-19T10:34:43;28.52;;;4.22;;
75417;SDS011;63997;52.112;5.420;2023-11-19T10:37:26;21.70;;;2.85;;
75417;SDS011;63997;52.112;5.420;2023-11-19T10:39:54;26.42;;;3.70;;
75417;SDS011;63997;52.112;5.420;2023-11-19T10:42:21;27.57;;;3.93;;
75417;SDS011;63997;52.112;5.420;2023-11-19T10:44:48;25.98;;;3.42;;
75417;SDS011;63997;52.112;5.420;2023-11-19T10:47:14;22.38;;;3.53;;
75417;SDS011;63997;52.112;5.420;2023-11-19T10:49:44;27.35;;;3.78;;
75417;SDS011;63997;52.112;5.420;2023-11-19T10:52:16;29.52;;;3.70;;
75417;SDS011;63997;52.112;5.420;2023-11-19T10:54:49;23.67;;;2.70;;
75417;SDS011;63997;52.112;5.420;2023-11-19T10:57:20;21.73;;;3.03;;
75417;SDS011;63997;52.112;5.420;2023-11-19T10:59:52;28.73;;;4.25;;
75417;SDS011;63997;52.112;5.420;2023-11-19T11:02:22;22.50;;;3.65;;
75417;SDS011;63997;52.112;5.420;2023-11-19T11:04:51;19.98;;;3.22;;
75417;SDS011;63997;52.112;5.420;2023-11-19T11:07:19;24.37;;;3.10;;
75417;SDS011;63997;52.112;5.420;2023-11-19T11:10:01;23.38;;;3.13;;
75417;SDS011;63997;52.112;5.420;2023-11-19T11:12:29;28.00;;;3.97;;
75417;SDS011;63997;52.112;5.420;2023-11-19T11:15:02;19.05;;;2.47;;
75417;SDS011;63997;52.112;5.420;2023-11-19T11:17:32;30.23;;;3.38;;
75417;SDS011;63997;52.112;5.420;2023-11-19T11:19:59;25.00;;;3.87;;
75417;SDS011;63997;52.112;5.420;2023-11-19T11:22:26;21.45;;;2.78;;
75417;SDS011;63997;52.112;5.420;2023-11-19T11:27:30;19.73;;;3.25;;
75417;SDS011;63997;52.112;5.420;2023-11-19T11:33:05;20.37;;;3.73;;
75417;SDS011;63997;52.112;5.420;2023-11-19T11:38:38;23.33;;;3.72;;
75417;SDS011;63997;52.112;5.420;2023-11-19T11:43:47;30.35;;;3.47;;
75417;SDS011;63997;52.112;5.420;2023-11-19T11:49:02;25.95;;;3.38;;
75417;SDS011;63997;52.112;5.420;2023-11-19T11:59:43;21.90;;;2.67;;
75417;SDS011;63997;52.112;5.420;2023-11-19T12:02:11;23.52;;;3.58;;
75417;SDS011;63997;52.112;5.420;2023-11-19T12:04:39;19.30;;;2.78;;
75417;SDS011;63997;52.112;5.420;2023-11-19T12:07:13;21.58;;;3.50;;
75417;SDS011;63997;52.112;5.420;2023-11-19T12:09:53;19.77;;;2.45;;
75417;SDS011;63997;52.112;5.420;2023-11-19T12:12:33;23.87;;;2.93;;
75417;SDS011;63997;52.112;5.420;2023-11-19T12:15:02;19.63;;;2.55;;
75417;SDS011;63997;52.112;5.420;2023-11-19T12:20:01;21.15;;;2.65;;
75417;SDS011;63997;52.112;5.420;2023-11-19T12:22:37;24.38;;;3.30;;
75417;SDS011;63997;52.112;5.420;2023-11-19T12:25:05;13.93;;;3.67;;
75417;SDS011;63997;52.112;5.420;2023-11-19T12:27:33;16.55;;;2.75;;
75417;SDS011;63997;52.112;5.420;2023-11-19T12:30:03;13.57;;;2.33;;
75417;SDS011;63997;52.112;5.420;2023-11-19T12:35:07;20.80;;;2.83;;
75417;SDS011;63997;52.112;5.420;2023-11-19T12:37:40;19.57;;;4.57;;
75417;SDS011;63997;52.112;5.420;2023-11-19T12:40:11;20.83;;;2.55;;
75417;SDS011;63997;52.112;5.420;2023-11-19T12:42:39;16.48;;;2.55;;
75417;SDS011;63997;52.112;5.420;2023-11-19T12:45:06;19.42;;;2.75;;
75417;SDS011;63997;52.112;5.420;2023-11-19T12:47:32;24.25;;;2.47;;
75417;SDS011;63997;52.112;5.420;2023-11-19T12:49:59;19.77;;;2.43;;
75417;SDS011;63997;52.112;5.420;2023-11-19T12:52:25;25.85;;;3.28;;
75417;SDS011;63997;52.112;5.420;2023-11-19T12:54:52;16.50;;;2.00;;
75417;SDS011;63997;52.112;5.420;2023-11-19T12:57:19;22.23;;;3.38;;
75417;SDS011;63997;52.112;5.420;2023-11-19T12:59:55;23.45;;;3.00;;
75417;SDS011;63997;52.112;5.420;2023-11-19T13:02:22;18.17;;;2.60;;
75417;SDS011;63997;52.112;5.420;2023-11-19T13:04:49;16.63;;;3.22;;
75417;SDS011;63997;52.112;5.420;2023-11-19T13:07:20;19.10;;;2.70;;
75417;SDS011;63997;52.112;5.420;2023-11-19T13:09:47;22.30;;;2.53;;
75417;SDS011;63997;52.112;5.420;2023-11-19T13:12:14;22.63;;;2.95;;
75417;SDS011;63997;52.112;5.420;2023-11-19T13:14:41;18.60;;;3.33;;
75417;SDS011;63997;52.112;5.420;2023-11-19T13:17:12;24.02;;;4.05;;
75417;SDS011;63997;52.112;5.420;2023-11-19T13:19:40;19.48;;;3.75;;
75417;SDS011;63997;52.112;5.420;2023-11-19T13:22:07;26.23;;;3.00;;
75417;SDS011;63997;52.112;5.420;2023-11-19T13:24:33;22.63;;;3.17;;
75417;SDS011;63997;52.112;5.420;2023-11-19T13:27:00;20.87;;;3.00;;
75417;SDS011;63997;52.112;5.420;2023-11-19T13:29:26;28.83;;;3.22;;
75417;SDS011;63997;52.112;5.420;2023-11-19T13:31:55;21.15;;;2.60;;
75417;SDS011;63997;52.112;5.420;2023-11-19T13:34:22;23.63;;;2.42;;
75417;SDS011;63997;52.112;5.420;2023-11-19T13:36:48;22.30;;;3.35;;
75417;SDS011;63997;52.112;5.420;2023-11-19T13:39:15;17.23;;;2.73;;
75417;SDS011;63997;52.112;5.420;2023-11-19T13:41:49;23.23;;;3.30;;
75417;SDS011;63997;52.112;5.420;2023-11-19T13:44:16;18.52;;;3.05;;
75417;SDS011;63997;52.112;5.420;2023-11-19T13:46:44;22.52;;;3.05;;
75417;SDS011;63997;52.112;5.420;2023-11-19T13:49:11;24.80;;;3.45;;
75417;SDS011;63997;52.112;5.420;2023-11-19T13:51:38;23.60;;;3.47;;
75417;SDS011;63997;52.112;5.420;2023-11-19T13:54:04;15.02;;;2.28;;
75417;SDS011;63997;52.112;5.420;2023-11-19T13:56:31;21.95;;;3.03;;
75417;SDS011;63997;52.112;5.420;2023-11-19T13:58:57;16.73;;;2.72;;
75417;SDS011;63997;52.112;5.420;2023-11-19T14:01:25;19.27;;;2.85;;
75417;SDS011;63997;52.112;5.420;2023-11-19T14:03:52;20.60;;;1.87;;
75417;SDS011;63997;52.112;5.420;2023-11-19T14:06:19;27.42;;;2.97;;
75417;SDS011;63997;52.112;5.420;2023-11-19T14:08:46;15.77;;;2.28;;
75417;SDS011;63997;52.112;5.420;2023-11-19T14:11:13;22.10;;;2.45;;
75417;SDS011;63997;52.112;5.420;2023-11-19T14:13:39;20.58;;;2.40;;
75417;SDS011;63997;52.112;5.420;2023-11-19T14:16:06;24.47;;;2.53;;
75417;SDS011;63997;52.112;5.420;2023-11-19T14:18:35;20.42;;;2.20;;
75417;SDS011;63997;52.112;5.420;2023-11-19T14:21:02;22.80;;;2.25;;
75417;SDS011;63997;52.112;5.420;2023-11-19T14:23:29;18.35;;;2.15;;
75417;SDS011;63997;52.112;5.420;2023-11-19T14:25:56;21.02;;;2.50;;
75417;SDS011;63997;52.112;5.420;2023-11-19T14:28:22;21.07;;;2.70;;
75417;SDS011;63997;52.112;5.420;2023-11-19T14:30:49;28.88;;;2.38;;
75417;SDS011;63997;52.112;5.420;2023-11-19T14:33:20;20.95;;;2.17;;
75417;SDS011;63997;52.112;5.420;2023-11-19T14:35:46;28.40;;;3.17;;
75417;SDS011;63997;52.112;5.420;2023-11-19T14:38:12;24.08;;;2.63;;
75417;SDS011;63997;52.112;5.420;2023-11-19T14:40:39;18.87;;;2.33;;
75417;SDS011;63997;52.112;5.420;2023-11-19T14:43:08;26.40;;;2.75;;
75417;SDS011;63997;52.112;5.420;2023-11-19T14:45:38;24.05;;;3.78;;
75417;SDS011;63997;52.112;5.420;2023-11-19T14:48:14;24.02;;;2.58;;
75417;SDS011;63997;52.112;5.420;2023-11-19T14:50:41;21.35;;;2.40;;
75417;SDS011;63997;52.112;5.420;2023-11-19T14:53:07;28.87;;;2.97;;
75417;SDS011;63997;52.112;5.420;2023-11-19T14:55:34;29.63;;;3.50;;
75417;SDS011;63997;52.112;5.420;2023-11-19T14:58:00;21.65;;;2.30;;
75417;SDS011;63997;52.112;5.420;2023-11-19T15:00:34;18.92;;;3.00;;
75417;SDS011;63997;52.112;5.420;2023-11-19T15:03:01;28.10;;;4.38;;
75417;SDS011;63997;52.112;5.420;2023-11-19T15:05:28;26.00;;;2.97;;
75417;SDS011;63997;52.112;5.420;2023-11-19T15:07:55;24.83;;;3.08;;